Time,TemperatureF,DewpointF,PressureIn,WindDirection,WindDirectionDegrees,WindSpeedMPH,WindSpeedGustMPH,Humidity,HourlyPrecipIn,Conditions,Clouds,dailyrainin,SoftwareType,DateUTC
2013-07-29 00:00:00,67.4,66.5,30.00,NW,313,0.5,1.2,97,0.00,RA,,0.00,WeatherDisplay:10.37,2013-07-29 04:00:00,
2013-07-29 00:01:00,67.5,66.6,30.00,South,187,1.0,2.3,97,0.00,RA,,0.00,WeatherDisplay:10.37,2013-07-29 04:01:00,
2013-07-29 00:02:00,67.5,66.6,30.00,SE,139,1.6,2.3,97,0.00,RA,,0.00,WeatherDisplay:10.37,2013-07-29 04:02:00,
2013-07-29 00:07:00,67.5,66.6,29.99,SE,139,0.9,2.3,97,0.00,RA,,0.00,WeatherDisplay:10.37,2013-07-29 04:07:00,
2013-07-29 00:12:00,67.4,66.5,29.99,SE,139,0.0,0.0,97,0.00,OVC,,0.00,WeatherDisplay:10.37,2013-07-29 04:12:00,
2013-07-29 00:17:00,67.4,66.5,29.99,SE,139,0.0,0.0,97,0.00,OVC,,0.00,WeatherDisplay:10.37,2013-07-29 04:17:00,
2013-07-29 00:22:00,67.4,66.5,30.00,SE,139,0.4,1.2,97,0.00,OVC,,0.00,WeatherDisplay:10.37,2013-07-29 04:22:00,
2013-07-29 00:27:00,67.5,66.6,30.00,West,279,1.4,2.3,97,0.00,OVC,,0.00,WeatherDisplay:10.37,2013-07-29 04:27:00,
2013-07-29 00:32:00,67.6,66.7,30.00,WNW,300,0.7,1.2,97,0.00,OVC,,0.00,WeatherDisplay:10.37,2013-07-29 04:32:00,
2013-07-29 00:37:00,67.9,67.0,30.00,NW,306,0.8,2.3,97,0.00,OVC,,0.00,WeatherDisplay:10.37,2013-07-29 04:37:00,
2013-07-29 00:42:00,68.0,66.8,30.00,NW,306,0.0,0.0,96,0.00,OVC,,0.00,WeatherDisplay:10.37,2013-07-29 04:42:00,
2013-07-29 00:47:00,68.1,66.9,30.01,SSE,161,0.6,2.3,96,0.00,OVC,,0.00,WeatherDisplay:10.37,2013-07-29 04:47:00,
2013-07-29 00:52:00,67.8,66.9,30.01,SSE,161,0.0,0.0,97,0.00,OVC,,0.00,WeatherDisplay:10.37,2013-07-29 04:52:00,
2013-07-29 00:57:00,67.8,66.9,30.00,SSE,161,0.5,1.2,97,0.00,OVC,,0.00,WeatherDisplay:10.37,2013-07-29 04:57:00,
2013-07-29 01:02:00,67.7,66.8,30.00,SSE,161,0.3,1.2,97,0.00,OVC,,0.00,WeatherDisplay:10.37,2013-07-29 05:02:00,
2013-07-29 01:07:00,67.7,66.8,30.00,SSE,161,0.0,0.0,97,0.00,OVC,,0.00,WeatherDisplay:10.37,2013-07-29 05:07:00,
2013-07-29 01:12:00,67.7,66.8,30.00,SSW,199,0.4,1.2,97,0.00,OVC,,0.00,WeatherDisplay:10.37,2013-07-29 05:12:00,
2013-07-29 01:17:00,67.7,66.8,30.00,SSW,199,0.7,1.2,97,0.00,OVC,,0.00,WeatherDisplay:10.37,2013-07-29 05:17:00,
2013-07-29 01:22:00,67.6,66.7,29.99,SSW,199,0.1,1.2,97,0.00,OVC,,0.00,WeatherDisplay:10.37,2013-07-29 05:22:00,
2013-07-29 01:27:00,67.6,66.7,29.99,WNW,298,2.0,3.0,97,0.00,OVC,,0.00,WeatherDisplay:10.37,2013-07-29 05:27:00,
2013-07-29 01:32:00,67.5,66.6,29.99,WNW,290,0.9,2.3,97,0.00,BKN,,0.00,WeatherDisplay:10.37,2013-07-29 05:32:00,
2013-07-29 01:37:00,67.4,66.5,29.99,WNW,290,0.7,1.2,97,0.00,BKN,,0.00,WeatherDisplay:10.37,2013-07-29 05:37:00,
2013-07-29 01:42:00,67.4,66.5,30.00,WNW,292,1.4,2.3,97,0.00,BKN,,0.00,WeatherDisplay:10.37,2013-07-29 05:42:00,
2013-07-29 01:47:00,67.4,66.5,30.00,West,278,1.3,2.3,97,0.00,BKN,,0.00,WeatherDisplay:10.37,2013-07-29 05:47:00,
2013-07-29 01:52:00,67.3,66.4,30.00,West,278,0.6,1.2,97,0.00,OVC,,0.00,WeatherDisplay:10.37,2013-07-29 05:52:00,
2013-07-29 01:57:00,67.0,66.1,30.00,WNW,283,0.3,1.2,97,0.00,OVC,,0.00,WeatherDisplay:10.37,2013-07-29 05:57:00,
2013-07-29 02:02:00,66.8,65.9,30.00,WNW,283,0.2,1.2,97,0.00,OVC,,0.00,WeatherDisplay:10.37,2013-07-29 06:02:00,
2013-07-29 02:07:00,66.8,65.9,30.00,WNW,283,0.3,1.2,97,0.00,OVC,,0.00,WeatherDisplay:10.37,2013-07-29 06:07:00,
2013-07-29 02:12:00,66.7,65.8,30.00,WNW,283,0.0,0.0,97,0.00,OVC,,0.00,WeatherDisplay:10.37,2013-07-29 06:12:00,
2013-07-29 02:17:00,66.5,65.6,29.99,WNW,283,1.0,2.3,97,0.00,OVC,,0.00,WeatherDisplay:10.37,2013-07-29 06:17:00,
2013-07-29 02:22:00,66.4,65.5,29.99,WNW,283,0.5,1.2,97,0.00,OVC,,0.00,WeatherDisplay:10.37,2013-07-29 06:22:00,
2013-07-29 02:27:00,66.2,65.3,29.99,NW,310,0.9,2.0,97,0.00,OVC,,0.00,WeatherDisplay:10.37,2013-07-29 06:27:00,
2013-07-29 02:32:00,66.3,65.4,29.99,West,273,1.4,3.0,97,0.00,SCT,,0.00,WeatherDisplay:10.37,2013-07-29 06:32:00,
2013-07-29 02:37:00,66.3,65.4,29.99,West,281,0.9,2.3,97,0.00,SCT,,0.00,WeatherDisplay:10.37,2013-07-29 06:37:00,
2013-07-29 02:42:00,66.3,65.4,29.99,West,281,0.1,1.2,97,0.00,SCT,,0.00,WeatherDisplay:10.37,2013-07-29 06:42:00,
2013-07-29 02:47:00,66.3,65.4,30.00,West,281,0.0,0.0,97,0.00,SCT,,0.00,WeatherDisplay:10.37,2013-07-29 06:47:00,
2013-07-29 02:52:00,66.3,65.4,30.00,NNW,343,0.8,2.3,97,0.00,BKN,,0.00,WeatherDisplay:10.37,2013-07-29 06:52:00,
2013-07-29 02:57:00,66.4,65.5,30.00,NNW,331,1.9,2.3,97,0.00,BKN,,0.00,WeatherDisplay:10.37,2013-07-29 06:57:00,
2013-07-29 03:02:00,66.3,65.4,30.00,West,270,1.1,2.3,97,0.00,BKN,,0.00,WeatherDisplay:10.37,2013-07-29 07:02:00,
2013-07-29 03:07:00,66.4,65.5,30.00,WNW,288,0.5,2.3,97,0.00,BKN,,0.00,WeatherDisplay:10.37,2013-07-29 07:07:00,
2013-07-29 03:12:00,66.4,65.5,30.01,West,266,0.2,1.2,97,0.00,OVC,,0.00,WeatherDisplay:10.37,2013-07-29 07:12:00,
2013-07-29 03:17:00,66.5,65.6,30.01,NW,307,0.5,2.3,97,0.00,OVC,,0.00,WeatherDisplay:10.37,2013-07-29 07:17:00,
2013-07-29 03:22:00,66.5,65.6,30.01,WNW,291,1.4,3.5,97,0.00,OVC,,0.00,WeatherDisplay:10.37,2013-07-29 07:22:00,
2013-07-29 03:27:00,66.5,65.6,30.01,WNW,296,0.8,3.5,97,0.00,OVC,,0.00,WeatherDisplay:10.37,2013-07-29 07:27:00,
2013-07-29 03:32:00,66.3,65.4,30.01,West,278,0.7,1.2,97,0.00,BKN,,0.00,WeatherDisplay:10.37,2013-07-29 07:32:00,
2013-07-29 03:37:00,66.1,65.2,30.01,SE,145,0.3,2.3,97,0.00,BKN,,0.00,WeatherDisplay:10.37,2013-07-29 07:37:00,
2013-07-29 03:42:00,66.0,65.1,30.00,West,263,1.0,2.3,97,0.00,BKN,,0.00,WeatherDisplay:10.37,2013-07-29 07:42:00,
2013-07-29 03:47:00,66.0,65.1,30.00,West,271,1.1,3.5,97,0.00,BKN,,0.00,WeatherDisplay:10.37,2013-07-29 07:47:00,
2013-07-29 03:53:00,66.0,65.1,30.00,NW,308,1.6,3.5,97,0.00,OVC,,0.00,WeatherDisplay:10.37,2013-07-29 07:53:00,
2013-07-29 03:58:00,65.9,65.0,30.00,NW,304,2.1,3.5,97,0.00,OVC,,0.00,WeatherDisplay:10.37,2013-07-29 07:58:00,
2013-07-29 04:03:00,65.9,65.0,30.00,WNW,287,2.3,3.5,97,0.00,OVC,,0.00,WeatherDisplay:10.37,2013-07-29 08:03:00,
2013-07-29 04:08:00,65.9,65.0,30.00,WNW,287,0.4,1.2,97,0.00,OVC,,0.00,WeatherDisplay:10.37,2013-07-29 08:08:00,
2013-07-29 04:13:00,65.9,65.0,30.00,WNW,287,0.1,1.2,97,0.00,OVC,,0.00,WeatherDisplay:10.37,2013-07-29 08:13:00,
2013-07-29 04:18:00,65.8,64.9,30.00,WNW,287,0.6,1.2,97,0.00,OVC,,0.00,WeatherDisplay:10.37,2013-07-29 08:18:00,
2013-07-29 04:23:00,65.5,64.6,30.00,NW,307,1.2,2.3,97,0.00,OVC,,0.00,WeatherDisplay:10.37,2013-07-29 08:23:00,
2013-07-29 04:28:00,65.4,64.8,30.00,NW,306,0.0,1.2,98,0.00,OVC,,0.00,WeatherDisplay:10.37,2013-07-29 08:28:00,
2013-07-29 04:33:00,65.2,64.3,30.00,NW,307,0.4,1.2,97,0.00,BKN,,0.00,WeatherDisplay:10.37,2013-07-29 08:33:00,
2013-07-29 04:38:00,65.1,64.2,30.00,NW,306,0.7,1.2,97,0.00,BKN,,0.00,WeatherDisplay:10.37,2013-07-29 08:38:00,
2013-07-29 04:43:00,65.1,64.5,30.00,WNW,303,0.6,1.2,98,0.00,BKN,,0.00,WeatherDisplay:10.37,2013-07-29 08:43:00,
2013-07-29 04:48:00,65.0,64.4,30.00,WNW,303,0.3,1.2,98,0.00,BKN,,0.00,WeatherDisplay:10.37,2013-07-29 08:48:00,
2013-07-29 04:53:00,64.9,64.3,30.00,WNW,303,0.0,0.0,98,0.00,OVC,,0.00,WeatherDisplay:10.37,2013-07-29 08:53:00,
2013-07-29 04:58:00,64.7,64.1,30.00,WNW,299,1.7,3.5,98,0.00,OVC,,0.00,WeatherDisplay:10.37,2013-07-29 08:58:00,
2013-07-29 05:03:00,64.7,64.1,30.00,NW,310,1.9,2.3,98,0.00,OVC,,0.00,WeatherDisplay:10.37,2013-07-29 09:03:00,
2013-07-29 05:08:00,64.8,64.2,30.00,WNW,298,1.8,3.5,98,0.00,OVC,,0.00,WeatherDisplay:10.37,2013-07-29 09:08:00,
2013-07-29 05:13:00,64.6,64.0,30.00,West,277,2.5,3.5,98,0.00,OVC,,0.00,WeatherDisplay:10.37,2013-07-29 09:13:00,
2013-07-29 05:18:00,64.5,63.6,30.00,West,277,1.4,3.5,97,0.00,OVC,,0.00,WeatherDisplay:10.37,2013-07-29 09:18:00,
2013-07-29 05:23:00,64.4,63.8,30.00,WNW,300,2.4,3.5,98,0.00,OVC,,0.00,WeatherDisplay:10.37,2013-07-29 09:23:00,
2013-07-29 05:28:00,64.2,63.6,30.00,NW,325,1.5,2.3,98,0.00,OVC,,0.00,WeatherDisplay:10.37,2013-07-29 09:28:00,
2013-07-29 05:33:00,64.4,63.8,30.00,WNW,288,0.1,1.2,98,0.00,OVC,,0.00,WeatherDisplay:10.37,2013-07-29 09:33:00,
2013-07-29 05:38:00,64.4,63.8,30.01,WNW,284,0.8,2.0,98,0.00,OVC,,0.00,WeatherDisplay:10.37,2013-07-29 09:38:00,
2013-07-29 05:43:00,64.5,63.9,30.01,WNW,288,1.8,3.0,98,0.00,OVC,,0.00,WeatherDisplay:10.37,2013-07-29 09:43:00,
2013-07-29 05:48:00,64.4,63.5,30.01,WNW,302,1.1,1.2,97,0.00,OVC,,0.00,WeatherDisplay:10.37,2013-07-29 09:48:00,
2013-07-29 05:53:00,64.3,63.4,30.01,WNW,290,1.0,2.3,97,0.00,OVC,,0.00,WeatherDisplay:10.37,2013-07-29 09:53:00,
2013-07-29 05:58:00,64.4,63.5,30.01,WSW,256,1.8,2.3,97,0.00,OVC,,0.00,WeatherDisplay:10.37,2013-07-29 09:58:00,
2013-07-29 06:04:00,64.4,63.5,30.01,WNW,284,1.7,3.5,97,0.00,OVC,,0.00,WeatherDisplay:10.37,2013-07-29 10:04:00,
2013-07-29 06:09:00,64.3,63.4,30.01,WSW,248,1.4,2.3,97,0.00,OVC,,0.00,WeatherDisplay:10.37,2013-07-29 10:09:00,
2013-07-29 06:14:00,64.3,63.4,30.02,WSW,253,1.0,2.3,97,0.00,OVC,,0.00,WeatherDisplay:10.37,2013-07-29 10:14:00,
2013-07-29 06:20:00,64.6,63.7,30.02,WNW,292,1.9,3.5,97,0.00,OVC,,0.00,WeatherDisplay:10.37,2013-07-29 10:20:00,
2013-07-29 06:25:00,64.8,63.9,30.02,WNW,284,1.6,3.5,97,0.00,OVC,,0.00,WeatherDisplay:10.37,2013-07-29 10:25:00,
2013-07-29 06:30:00,64.8,63.9,30.02,WNW,288,0.6,2.3,97,0.00,OVC,,0.00,WeatherDisplay:10.37,2013-07-29 10:30:00,
2013-07-29 06:35:00,64.7,63.8,30.02,WNW,288,0.7,1.2,97,0.00,OVC,,0.00,WeatherDisplay:10.37,2013-07-29 10:35:00,
2013-07-29 06:40:00,64.3,63.4,30.02,WNW,288,0.1,1.2,97,0.00,OVC,,0.00,WeatherDisplay:10.37,2013-07-29 10:40:00,
2013-07-29 06:46:00,64.1,63.2,30.02,WNW,288,0.5,1.2,97,0.00,OVC,,0.00,WeatherDisplay:10.37,2013-07-29 10:46:00,
2013-07-29 06:51:00,64.1,63.5,30.02,WNW,288,0.2,1.2,98,0.00,BKN,,0.00,WeatherDisplay:10.37,2013-07-29 10:51:00,
2013-07-29 06:56:00,64.4,63.8,30.03,WNW,288,0.0,1.0,98,0.00,BKN,,0.00,WeatherDisplay:10.37,2013-07-29 10:56:00,
2013-07-29 07:01:00,65.0,64.4,30.03,NW,311,1.3,2.3,98,0.00,BKN,,0.00,WeatherDisplay:10.37,2013-07-29 11:01:00,
2013-07-29 07:07:00,65.4,64.5,30.03,West,261,0.3,2.3,97,0.00,BKN,,0.00,WeatherDisplay:10.37,2013-07-29 11:07:00,
2013-07-29 07:12:00,65.8,64.9,30.03,West,264,0.2,1.2,97,0.00,SCT,,0.00,WeatherDisplay:10.37,2013-07-29 11:12:00,
2013-07-29 07:17:00,65.9,65.0,30.03,West,261,0.5,1.2,97,0.00,SCT,,0.00,WeatherDisplay:10.37,2013-07-29 11:17:00,
2013-07-29 07:22:00,66.1,64.9,30.04,SE,134,0.1,2.3,96,0.00,SCT,,0.00,WeatherDisplay:10.37,2013-07-29 11:22:00,
2013-07-29 07:28:00,66.4,65.2,30.04,SE,134,0.1,1.2,96,0.00,SCT,,0.00,WeatherDisplay:10.37,2013-07-29 11:28:00,
2013-07-29 07:33:00,66.8,65.6,30.04,SE,142,0.4,1.2,96,0.00,FEW,,0.00,WeatherDisplay:10.37,2013-07-29 11:33:00,
2013-07-29 07:38:00,67.2,66.0,30.04,SE,142,0.7,1.2,96,0.00,FEW,,0.00,WeatherDisplay:10.37,2013-07-29 11:38:00,
2013-07-29 07:43:00,67.5,65.7,30.04,SSE,155,1.1,2.3,94,0.00,FEW,,0.00,WeatherDisplay:10.37,2013-07-29 11:43:00,
2013-07-29 07:49:00,67.5,65.1,30.04,NNW,331,1.4,3.5,92,0.00,FEW,,0.00,WeatherDisplay:10.37,2013-07-29 11:49:00,
2013-07-29 07:54:00,67.7,65.3,30.04,South,169,1.1,2.3,92,0.00,BKN,,0.00,WeatherDisplay:10.37,2013-07-29 11:54:00,
2013-07-29 07:59:00,68.2,66.1,30.04,South,180,1.3,2.3,93,0.00,BKN,,0.00,WeatherDisplay:10.37,2013-07-29 11:59:00,
2013-07-29 08:04:00,68.6,66.2,30.04,NW,323,1.0,2.0,92,0.01,RA,,0.01,WeatherDisplay:10.37,2013-07-29 12:04:00,
2013-07-29 08:09:00,68.6,65.5,30.04,WNW,301,1.1,3.5,90,0.01,RA,,0.01,WeatherDisplay:10.37,2013-07-29 12:09:00,
2013-07-29 08:15:00,68.8,65.4,30.04,NW,312,1.6,3.5,89,0.01,OVC,,0.01,WeatherDisplay:10.37,2013-07-29 12:15:00,
2013-07-29 08:20:00,68.8,65.4,30.04,NE,43,0.5,2.3,89,0.01,OVC,,0.01,WeatherDisplay:10.37,2013-07-29 12:20:00,
2013-07-29 08:25:00,69.7,66.3,30.04,ENE,73,0.4,1.2,89,0.01,OVC,,0.01,WeatherDisplay:10.37,2013-07-29 12:25:00,
2013-07-29 08:30:00,70.7,67.0,30.05,ESE,121,1.8,3.5,88,0.01,OVC,,0.01,WeatherDisplay:10.37,2013-07-29 12:30:00,
2013-07-29 08:35:00,70.9,66.5,30.05,SSE,150,1.7,3.5,86,0.01,OVC,,0.01,WeatherDisplay:10.37,2013-07-29 12:35:00,
2013-07-29 08:40:00,71.4,67.0,30.05,ESE,108,1.3,2.3,86,0.01,OVC,,0.01,WeatherDisplay:10.37,2013-07-29 12:40:00,
2013-07-29 08:45:00,71.8,67.4,30.05,East,81,1.6,3.5,86,0.01,OVC,,0.01,WeatherDisplay:10.37,2013-07-29 12:45:00,
2013-07-29 08:51:00,72.1,67.3,30.05,SE,140,1.6,3.5,85,0.01,BKN,,0.01,WeatherDisplay:10.37,2013-07-29 12:51:00,
2013-07-29 08:57:00,71.9,67.5,30.05,North,351,1.9,5.0,86,0.01,BKN,,0.01,WeatherDisplay:10.37,2013-07-29 12:57:00,
2013-07-29 09:02:00,73.9,68.8,30.05,ENE,72,2.7,5.8,84,0.01,BKN,,0.01,WeatherDisplay:10.37,2013-07-29 13:02:00,
2013-07-29 09:07:00,74.8,68.6,30.05,SE,146,1.5,3.5,81,0.00,BKN,,0.01,WeatherDisplay:10.37,2013-07-29 13:07:00,
2013-07-29 09:13:00,74.3,67.4,30.06,ESE,117,2.6,5.8,79,0.00,FEW,,0.01,WeatherDisplay:10.37,2013-07-29 13:13:00,
2013-07-29 09:18:00,72.8,66.6,30.06,SE,142,2.0,3.5,81,0.00,FEW,,0.01,WeatherDisplay:10.37,2013-07-29 13:18:00,
2013-07-29 09:23:00,73.2,67.0,30.06,SE,138,1.7,3.5,81,0.00,CLR,,0.01,WeatherDisplay:10.37,2013-07-29 13:23:00,
2013-07-29 09:28:00,73.6,67.0,30.06,NNE,17,1.3,2.3,80,0.00,CLR,,0.01,WeatherDisplay:10.37,2013-07-29 13:28:00,
2013-07-29 09:34:00,73.1,67.6,30.06,WNW,297,1.9,3.5,83,0.00,CLR,,0.01,WeatherDisplay:10.37,2013-07-29 13:34:00,
2013-07-29 09:39:00,72.9,66.7,30.06,ESE,114,2.7,3.5,81,0.00,CLR,,0.01,WeatherDisplay:10.37,2013-07-29 13:39:00,
2013-07-29 09:44:00,73.7,67.1,30.07,North,360,1.4,3.0,80,0.00,FEW,,0.01,WeatherDisplay:10.37,2013-07-29 13:44:00,
2013-07-29 09:49:00,73.4,67.2,30.06,NE,52,2.8,4.0,81,0.00,FEW,,0.01,WeatherDisplay:10.37,2013-07-29 13:49:00,
2013-07-29 09:54:00,73.5,66.9,30.07,East,94,1.5,4.6,80,0.00,FEW,,0.01,WeatherDisplay:10.37,2013-07-29 13:54:00,
2013-07-29 09:59:00,73.7,66.8,30.07,SSW,193,3.4,4.6,79,0.00,FEW,,0.01,WeatherDisplay:10.37,2013-07-29 13:59:00,
2013-07-29 10:05:00,73.9,67.7,30.06,SE,127,1.6,3.0,81,0.00,SCT,,0.01,WeatherDisplay:10.37,2013-07-29 14:05:00,
2013-07-29 10:10:00,75.3,68.0,30.06,SSE,147,1.8,6.0,78,0.00,SCT,,0.01,WeatherDisplay:10.37,2013-07-29 14:10:00,
2013-07-29 10:15:00,74.7,65.9,30.06,SE,126,4.0,5.0,74,0.00,SCT,,0.01,WeatherDisplay:10.37,2013-07-29 14:15:00,
2013-07-29 10:21:00,75.0,66.9,30.06,East,82,1.3,3.5,76,0.00,SCT,,0.01,WeatherDisplay:10.37,2013-07-29 14:21:00,
2013-07-29 10:26:00,76.1,66.0,30.06,ESE,104,2.3,3.5,71,0.00,SCT,,0.01,WeatherDisplay:10.37,2013-07-29 14:26:00,
2013-07-29 10:31:00,76.4,66.7,30.06,SE,131,1.9,4.6,72,0.00,BKN,,0.01,WeatherDisplay:10.37,2013-07-29 14:31:00,
2013-07-29 10:38:00,76.3,65.8,30.06,ESE,119,1.7,4.0,70,0.00,BKN,,0.01,WeatherDisplay:10.37,2013-07-29 14:38:00,
2013-07-29 10:43:00,76.3,65.4,30.06,ENE,59,1.6,3.5,69,0.00,SCT,,0.01,WeatherDisplay:10.37,2013-07-29 14:43:00,
2013-07-29 10:48:00,76.8,65.0,30.06,NE,51,1.2,6.9,67,0.00,SCT,,0.01,WeatherDisplay:10.37,2013-07-29 14:48:00,
2013-07-29 10:53:00,77.9,65.2,30.06,SE,136,3.8,6.9,65,0.00,SCT,,0.01,WeatherDisplay:10.37,2013-07-29 14:53:00,
2013-07-29 10:59:00,76.4,63.8,30.06,South,185,2.0,5.8,65,0.00,SCT,,0.01,WeatherDisplay:10.37,2013-07-29 14:59:00,
2013-07-29 11:04:00,76.6,64.0,30.05,West,279,2.1,3.5,65,0.00,SCT,,0.01,WeatherDisplay:10.37,2013-07-29 15:04:00,
2013-07-29 11:09:00,76.7,64.5,30.05,ENE,65,0.7,3.0,66,0.00,SCT,,0.01,WeatherDisplay:10.37,2013-07-29 15:09:00,
2013-07-29 11:15:00,77.2,65.0,30.05,East,95,1.4,3.5,66,0.00,SCT,,0.01,WeatherDisplay:10.37,2013-07-29 15:15:00,
2013-07-29 11:20:00,75.8,64.1,30.05,WNW,298,0.9,2.0,67,0.00,SCT,,0.01,WeatherDisplay:10.37,2013-07-29 15:20:00,
2013-07-29 11:25:00,76.2,65.3,30.05,West,270,0.4,2.0,69,0.00,SCT,,0.01,WeatherDisplay:10.37,2013-07-29 15:25:00,
2013-07-29 11:31:00,75.5,63.3,30.05,WSW,240,1.8,3.5,66,0.00,SCT,,0.01,WeatherDisplay:10.37,2013-07-29 15:31:00,
2013-07-29 11:36:00,74.9,63.6,30.05,North,351,1.5,3.5,68,0.00,SCT,,0.01,WeatherDisplay:10.37,2013-07-29 15:36:00,
2013-07-29 11:41:00,75.2,63.9,30.05,NW,308,1.4,3.5,68,0.00,FEW,,0.01,WeatherDisplay:10.37,2013-07-29 15:41:00,
2013-07-29 11:46:00,74.7,64.3,30.05,NW,307,1.2,2.3,70,0.00,FEW,,0.01,WeatherDisplay:10.37,2013-07-29 15:46:00,
2013-07-29 11:52:00,75.5,66.2,30.05,NW,322,1.8,2.3,73,0.00,FEW,,0.01,WeatherDisplay:10.37,2013-07-29 15:52:00,
2013-07-29 11:57:00,75.3,63.6,30.05,NNE,26,1.9,3.5,67,0.00,FEW,,0.01,WeatherDisplay:10.37,2013-07-29 15:57:00,
2013-07-29 12:02:00,76.5,66.0,30.05,NNE,27,1.1,3.5,70,0.00,SCT,,0.01,WeatherDisplay:10.37,2013-07-29 16:02:00,
2013-07-29 12:07:00,78.5,65.8,30.04,ENE,64,1.5,2.3,65,0.00,SCT,,0.01,WeatherDisplay:10.37,2013-07-29 16:07:00,
2013-07-29 12:12:00,78.7,65.5,30.04,WNW,292,1.8,4.6,64,0.00,SCT,,0.01,WeatherDisplay:10.37,2013-07-29 16:12:00,
2013-07-29 12:18:00,77.9,62.9,30.04,NW,307,3.1,5.0,60,0.00,SCT,,0.01,WeatherDisplay:10.37,2013-07-29 16:18:00,
2013-07-29 12:23:00,77.8,63.7,30.04,NE,37,3.8,9.2,62,0.00,BKN,,0.01,WeatherDisplay:10.37,2013-07-29 16:23:00,
2013-07-29 12:29:00,76.8,62.3,30.05,NW,314,2.2,4.6,61,0.00,BKN,,0.01,WeatherDisplay:10.37,2013-07-29 16:29:00,
2013-07-29 12:34:00,76.9,64.7,30.04,NE,52,1.8,3.5,66,0.00,BKN,,0.01,WeatherDisplay:10.37,2013-07-29 16:34:00,
2013-07-29 12:40:00,79.8,63.2,30.05,SSE,167,1.2,3.5,57,0.00,BKN,,0.01,WeatherDisplay:10.37,2013-07-29 16:40:00,
2013-07-29 12:45:00,79.6,63.0,30.04,SSE,147,2.4,5.0,57,0.00,SCT,,0.01,WeatherDisplay:10.37,2013-07-29 16:45:00,
2013-07-29 12:50:00,80.0,62.4,30.04,NW,307,3.1,4.6,55,0.00,SCT,,0.01,WeatherDisplay:10.37,2013-07-29 16:50:00,
2013-07-29 12:55:00,79.6,61.5,30.04,North,11,2.6,5.8,54,0.00,SCT,,0.01,WeatherDisplay:10.37,2013-07-29 16:55:00,
2013-07-29 13:00:00,78.3,62.3,30.04,SSW,198,1.3,3.0,58,0.00,SCT,,0.01,WeatherDisplay:10.37,2013-07-29 17:00:00,
2013-07-29 13:06:00,78.9,61.9,30.04,WSW,250,1.8,5.0,56,0.00,FEW,,0.01,WeatherDisplay:10.37,2013-07-29 17:06:00,
2013-07-29 13:11:00,79.6,64.0,30.04,WNW,302,1.4,5.8,59,0.00,FEW,,0.01,WeatherDisplay:10.37,2013-07-29 17:11:00,
2013-07-29 13:17:00,78.1,62.1,30.04,WSW,244,2.0,3.5,58,0.00,FEW,,0.01,WeatherDisplay:10.37,2013-07-29 17:17:00,
2013-07-29 13:22:00,80.0,63.9,30.04,SE,134,2.6,6.0,58,0.00,BKN,,0.01,WeatherDisplay:10.37,2013-07-29 17:22:00,
2013-07-29 13:27:00,80.6,60.8,30.04,ENE,61,1.6,6.9,51,0.00,BKN,,0.01,WeatherDisplay:10.37,2013-07-29 17:27:00,
2013-07-29 13:32:00,81.4,61.0,30.04,ENE,57,1.6,3.5,50,0.00,BKN,,0.01,WeatherDisplay:10.37,2013-07-29 17:32:00,
2013-07-29 13:38:00,81.2,60.2,30.04,SE,135,1.4,3.5,49,0.00,BKN,,0.01,WeatherDisplay:10.37,2013-07-29 17:38:00,
2013-07-29 13:43:00,80.7,60.3,30.04,SE,127,1.8,3.5,50,0.00,SCT,,0.01,WeatherDisplay:10.37,2013-07-29 17:43:00,
2013-07-29 13:48:00,81.0,60.0,30.04,NNW,329,3.7,10.4,49,0.00,SCT,,0.01,WeatherDisplay:10.37,2013-07-29 17:48:00,
2013-07-29 13:53:00,80.4,61.2,30.04,NE,43,1.6,4.6,52,0.00,SCT,,0.01,WeatherDisplay:10.37,2013-07-29 17:53:00,
2013-07-29 13:58:00,80.0,59.7,30.04,East,83,3.2,6.9,50,0.00,SCT,,0.01,WeatherDisplay:10.37,2013-07-29 17:58:00,
2013-07-29 14:03:00,78.6,59.5,30.04,WNW,294,2.2,4.6,52,0.00,FEW,,0.01,WeatherDisplay:10.37,2013-07-29 18:03:00,
2013-07-29 14:08:00,78.0,58.9,30.04,NE,40,2.0,3.5,52,0.00,FEW,,0.01,WeatherDisplay:10.37,2013-07-29 18:08:00,
2013-07-29 14:13:00,80.4,60.1,30.04,ENE,66,2.9,4.0,50,0.00,FEW,,0.01,WeatherDisplay:10.37,2013-07-29 18:13:00,
2013-07-29 14:18:00,80.6,58.5,30.04,South,170,3.1,4.6,47,0.00,FEW,,0.01,WeatherDisplay:10.37,2013-07-29 18:18:00,
2013-07-29 14:23:00,80.7,58.0,30.04,ESE,119,3.5,4.6,46,0.00,SCT,,0.01,WeatherDisplay:10.37,2013-07-29 18:23:00,
2013-07-29 14:28:00,80.7,58.0,30.04,West,267,3.2,5.8,46,0.00,SCT,,0.01,WeatherDisplay:10.37,2013-07-29 18:28:00,
2013-07-29 14:33:00,79.6,59.9,30.04,SW,234,2.8,3.5,51,0.00,SCT,,0.01,WeatherDisplay:10.37,2013-07-29 18:33:00,
2013-07-29 14:39:00,79.6,59.3,30.03,South,180,2.2,5.8,50,0.00,SCT,,0.01,WeatherDisplay:10.37,2013-07-29 18:39:00,
2013-07-29 14:44:00,80.0,59.7,30.03,WNW,284,3.6,6.9,50,0.00,SCT,,0.01,WeatherDisplay:10.37,2013-07-29 18:44:00,
2013-07-29 14:50:00,80.5,58.4,30.04,WNW,300,3.5,5.0,47,0.00,SCT,,0.01,WeatherDisplay:10.37,2013-07-29 18:50:00,
2013-07-29 14:55:00,80.0,56.7,30.04,NW,317,4.4,9.0,45,0.00,SCT,,0.01,WeatherDisplay:10.37,2013-07-29 18:55:00,
2013-07-29 15:00:00,80.1,56.8,30.04,NW,323,1.1,3.5,45,0.00,SCT,,0.01,WeatherDisplay:10.37,2013-07-29 19:00:00,
2013-07-29 15:05:00,80.3,58.2,30.04,NW,309,2.3,3.5,47,0.00,FEW,,0.01,WeatherDisplay:10.37,2013-07-29 19:05:00,
2013-07-29 15:11:00,81.0,56.4,30.04,SSE,158,5.0,8.1,43,0.00,FEW,,0.01,WeatherDisplay:10.37,2013-07-29 19:11:00,
2013-07-29 15:16:00,80.5,57.2,30.04,NW,319,3.7,5.8,45,0.00,FEW,,0.01,WeatherDisplay:10.37,2013-07-29 19:16:00,
2013-07-29 15:21:00,80.8,56.9,30.04,SE,137,2.3,3.5,44,0.00,FEW,,0.01,WeatherDisplay:10.37,2013-07-29 19:21:00,
2013-07-29 15:28:00,81.4,55.4,30.04,NE,55,2.2,6.9,41,0.00,FEW,,0.01,WeatherDisplay:10.37,2013-07-29 19:28:00,
2013-07-29 15:33:00,80.9,53.6,30.04,South,186,2.8,11.5,39,0.00,FEW,,0.01,WeatherDisplay:10.37,2013-07-29 19:33:00,
2013-07-29 15:38:00,81.0,56.4,30.04,NNW,327,3.8,7.0,43,0.00,FEW,,0.01,WeatherDisplay:10.37,2013-07-29 19:38:00,
2013-07-29 15:43:00,81.2,53.9,30.04,South,169,1.8,3.5,39,0.00,FEW,,0.01,WeatherDisplay:10.37,2013-07-29 19:43:00,
2013-07-29 15:48:00,81.7,52.0,30.04,South,190,4.0,7.0,36,0.00,,,0.01,weatherlink.com 1.10,2013-07-29 19:48:00,
2013-07-29 15:53:00,81.3,53.3,30.04,West,265,1.5,3.5,38,0.00,FEW,,0.01,WeatherDisplay:10.37,2013-07-29 19:53:00,
2013-07-29 16:00:00,81.7,54.3,30.04,ESE,121,0.8,3.5,39,0.00,FEW,,0.01,WeatherDisplay:10.37,2013-07-29 20:00:00,
2013-07-29 16:05:00,82.2,55.5,30.04,SSE,149,1.4,3.5,40,0.00,FEW,,0.01,WeatherDisplay:10.37,2013-07-29 20:05:00,
2013-07-29 16:10:00,81.3,54.0,30.04,South,188,4.1,6.9,39,0.00,FEW,,0.01,WeatherDisplay:10.37,2013-07-29 20:10:00,
2013-07-29 16:15:00,79.2,53.5,30.04,SW,223,0.7,1.2,41,0.00,SCT,,0.01,WeatherDisplay:10.37,2013-07-29 20:15:00,
2013-07-29 16:20:00,80.0,56.1,30.04,SSW,213,3.1,5.0,44,0.00,SCT,,0.01,WeatherDisplay:10.37,2013-07-29 20:20:00,
2013-07-29 16:26:00,80.2,56.9,30.04,WNW,296,2.0,4.0,45,0.00,SCT,,0.01,WeatherDisplay:10.37,2013-07-29 20:26:00,
2013-07-29 16:31:00,80.3,55.1,30.04,NNW,339,2.0,5.0,42,0.00,SCT,,0.01,WeatherDisplay:10.37,2013-07-29 20:31:00,
2013-07-29 16:36:00,80.7,54.8,30.04,South,180,2.6,4.0,41,0.00,SCT,,0.01,WeatherDisplay:10.37,2013-07-29 20:36:00,
2013-07-29 16:42:00,80.9,55.0,30.04,SSW,213,2.3,4.6,41,0.00,SCT,,0.01,WeatherDisplay:10.37,2013-07-29 20:42:00,
2013-07-29 16:47:00,79.9,56.7,30.04,SE,136,1.2,9.2,45,0.00,SCT,,0.01,WeatherDisplay:10.37,2013-07-29 20:47:00,
2013-07-29 16:52:00,80.0,52.8,30.04,North,5,3.2,6.0,39,0.00,SCT,,0.01,WeatherDisplay:10.37,2013-07-29 20:52:00,
2013-07-29 16:58:00,79.7,57.7,30.04,NNW,345,2.0,3.5,47,0.00,SCT,,0.01,WeatherDisplay:10.37,2013-07-29 20:58:00,
2013-07-29 17:03:00,79.7,56.0,30.04,North,355,1.0,8.0,45,0.00,,,0.01,weatherlink.com 1.10,2013-07-29 21:03:00,
2013-07-29 17:09:00,79.0,54.6,30.04,South,191,2.3,4.0,43,0.00,SCT,,0.01,WeatherDisplay:10.37,2013-07-29 21:09:00,
2013-07-29 17:14:00,78.2,58.6,30.04,South,190,1.4,2.3,51,0.00,FEW,,0.01,WeatherDisplay:10.37,2013-07-29 21:14:00,
2013-07-29 17:19:00,79.3,57.3,30.04,WNW,284,1.0,3.5,47,0.00,FEW,,0.01,WeatherDisplay:10.37,2013-07-29 21:19:00,
2013-07-29 17:24:00,78.9,57.0,30.04,WNW,289,2.0,5.0,47,0.00,FEW,,0.01,WeatherDisplay:10.37,2013-07-29 21:24:00,
2013-07-29 17:29:00,79.6,53.8,30.04,South,186,1.1,3.5,41,0.00,FEW,,0.01,WeatherDisplay:10.37,2013-07-29 21:29:00,
2013-07-29 17:34:00,78.5,54.1,30.04,SSW,194,0.9,3.5,43,0.00,BKN,,0.01,WeatherDisplay:10.37,2013-07-29 21:34:00,
2013-07-29 17:40:00,77.7,55.3,30.04,ENE,67,0.8,4.6,46,0.00,BKN,,0.01,WeatherDisplay:10.37,2013-07-29 21:40:00,
2013-07-29 17:45:00,78.9,53.9,30.04,West,280,1.4,4.0,42,0.00,FEW,,0.01,WeatherDisplay:10.37,2013-07-29 21:45:00,
2013-07-29 17:50:00,78.1,52.5,30.04,WNW,294,2.9,3.5,41,0.00,FEW,,0.01,WeatherDisplay:10.37,2013-07-29 21:50:00,
2013-07-29 17:55:00,77.6,54.0,30.04,SW,228,1.9,3.5,44,0.00,FEW,,0.01,WeatherDisplay:10.37,2013-07-29 21:55:00,
2013-07-29 18:00:00,76.5,55.3,30.04,SSE,157,0.7,3.5,48,0.00,FEW,,0.01,WeatherDisplay:10.37,2013-07-29 22:00:00,
2013-07-29 18:05:00,75.3,55.9,30.03,SSW,209,1.8,3.5,51,0.00,CLR,,0.01,WeatherDisplay:10.37,2013-07-29 22:05:00,
2013-07-29 18:10:00,74.9,55.0,30.04,SSW,209,1.0,2.3,50,0.00,CLR,,0.01,WeatherDisplay:10.37,2013-07-29 22:10:00,
2013-07-29 18:15:00,74.8,55.5,30.04,SSW,211,0.8,2.3,51,0.00,CLR,,0.01,WeatherDisplay:10.37,2013-07-29 22:15:00,
2013-07-29 18:20:00,74.3,55.5,30.04,SSW,212,1.2,2.3,52,0.00,CLR,,0.01,WeatherDisplay:10.37,2013-07-29 22:20:00,
2013-07-29 18:25:00,74.1,55.9,30.04,SW,225,0.7,2.3,53,0.00,CLR,,0.01,WeatherDisplay:10.37,2013-07-29 22:25:00,
2013-07-29 18:30:00,73.8,55.1,30.04,WNW,303,1.0,2.0,52,0.00,CLR,,0.01,WeatherDisplay:10.37,2013-07-29 22:30:00,
2013-07-29 18:35:00,73.6,57.9,30.04,NNW,342,1.1,2.3,58,0.00,CLR,,0.01,WeatherDisplay:10.37,2013-07-29 22:35:00,
2013-07-29 18:41:00,73.6,59.8,30.04,West,280,1.6,3.5,62,0.00,CLR,,0.01,WeatherDisplay:10.37,2013-07-29 22:41:00,
2013-07-29 18:46:00,72.9,59.1,30.04,WNW,300,1.8,3.5,62,0.00,CLR,,0.01,WeatherDisplay:10.37,2013-07-29 22:46:00,
2013-07-29 18:51:00,72.5,60.5,30.04,WNW,294,1.6,3.5,66,0.00,CLR,,0.01,WeatherDisplay:10.37,2013-07-29 22:51:00,
2013-07-29 18:57:00,72.1,60.5,30.04,WNW,287,1.8,3.5,67,0.00,CLR,,0.01,WeatherDisplay:10.37,2013-07-29 22:57:00,
2013-07-29 19:02:00,71.7,60.2,30.05,NW,313,1.6,4.0,67,0.00,CLR,,0.01,WeatherDisplay:10.37,2013-07-29 23:02:00,
2013-07-29 19:07:00,71.5,59.1,30.05,WNW,302,1.3,2.3,65,0.00,CLR,,0.01,WeatherDisplay:10.37,2013-07-29 23:07:00,
2013-07-29 19:12:00,71.3,61.4,30.05,WNW,296,3.0,3.5,71,0.00,CLR,,0.01,WeatherDisplay:10.37,2013-07-29 23:12:00,
2013-07-29 19:18:00,70.6,61.1,30.05,WNW,289,1.6,2.3,72,0.00,CLR,,0.01,WeatherDisplay:10.37,2013-07-29 23:18:00,
2013-07-29 19:24:00,70.1,60.7,30.05,WNW,290,2.3,3.5,72,0.00,CLR,,0.01,WeatherDisplay:10.37,2013-07-29 23:24:00,
2013-07-29 19:29:00,69.5,60.5,30.06,WNW,286,1.8,3.5,73,0.00,CLR,,0.01,WeatherDisplay:10.37,2013-07-29 23:29:00,
2013-07-29 19:34:00,69.2,60.2,30.06,WNW,298,1.5,2.3,73,0.00,CLR,,0.01,WeatherDisplay:10.37,2013-07-29 23:34:00,
2013-07-29 19:39:00,69.1,59.7,30.06,WNW,284,1.2,3.5,72,0.00,CLR,,0.01,WeatherDisplay:10.37,2013-07-29 23:39:00,
2013-07-29 19:44:00,68.9,59.5,30.06,WNW,289,2.2,3.5,72,0.00,CLR,,0.01,WeatherDisplay:10.37,2013-07-29 23:44:00,
2013-07-29 19:49:00,68.6,59.2,30.06,WNW,289,2.3,3.5,72,0.00,CLR,,0.01,WeatherDisplay:10.37,2013-07-29 23:49:00,
2013-07-29 19:55:00,68.4,59.0,30.07,WNW,288,1.8,3.5,72,0.00,CLR,,0.01,WeatherDisplay:10.37,2013-07-29 23:55:00,
2013-07-29 20:00:00,68.2,58.8,30.07,West,280,1.5,2.3,72,0.00,CLR,,0.01,WeatherDisplay:10.37,2013-07-30 00:00:00,
2013-07-29 20:05:00,67.9,59.3,30.07,WNW,284,1.9,3.5,74,0.00,CLR,,0.01,WeatherDisplay:10.37,2013-07-30 00:05:00,
2013-07-29 20:10:00,67.7,59.1,30.07,WNW,285,2.4,3.5,74,0.00,CLR,,0.01,WeatherDisplay:10.37,2013-07-30 00:10:00,
2013-07-29 20:15:00,67.6,58.6,30.08,WNW,294,1.9,3.5,73,0.00,CLR,,0.01,WeatherDisplay:10.37,2013-07-30 00:15:00,
2013-07-29 20:20:00,67.2,58.6,30.08,WNW,287,1.6,2.3,74,0.00,CLR,,0.01,WeatherDisplay:10.37,2013-07-30 00:20:00,
2013-07-29 20:26:00,66.9,58.3,30.08,WNW,291,2.8,3.5,74,0.00,CLR,,0.01,WeatherDisplay:10.37,2013-07-30 00:26:00,
2013-07-29 20:31:00,66.6,58.4,30.08,West,281,2.2,3.5,75,0.00,CLR,,0.01,WeatherDisplay:10.37,2013-07-30 00:31:00,
2013-07-29 20:36:00,66.5,58.7,30.08,West,281,1.9,3.5,76,0.00,CLR,,0.01,WeatherDisplay:10.37,2013-07-30 00:36:00,
2013-07-29 20:41:00,66.3,58.5,30.08,WNW,293,1.7,2.3,76,0.00,CLR,,0.01,WeatherDisplay:10.37,2013-07-30 00:41:00,
2013-07-29 20:46:00,65.8,58.4,30.09,WNW,287,2.5,3.5,77,0.00,CLR,,0.01,WeatherDisplay:10.37,2013-07-30 00:46:00,
2013-07-29 20:51:00,65.6,58.2,30.09,WNW,294,2.8,3.5,77,0.00,CLR,,0.01,WeatherDisplay:10.37,2013-07-30 00:51:00,
2013-07-29 20:57:00,65.3,58.3,30.09,WNW,288,2.3,3.5,78,0.00,CLR,,0.01,WeatherDisplay:10.37,2013-07-30 00:57:00,
2013-07-29 21:03:00,65.2,58.2,30.09,WNW,287,2.9,4.0,78,0.00,CLR,,0.01,WeatherDisplay:10.37,2013-07-30 01:03:00,
2013-07-29 21:08:00,65.0,58.3,30.10,WNW,294,2.5,3.5,79,0.00,CLR,,0.01,WeatherDisplay:10.37,2013-07-30 01:08:00,
2013-07-29 21:13:00,64.7,58.4,30.10,WNW,289,2.2,3.5,80,0.00,CLR,,0.01,WeatherDisplay:10.37,2013-07-30 01:13:00,
2013-07-29 21:18:00,64.6,58.6,30.10,WNW,298,1.3,3.5,81,0.00,CLR,,0.01,WeatherDisplay:10.37,2013-07-30 01:18:00,
2013-07-29 21:23:00,64.7,58.7,30.10,WNW,300,1.4,3.5,81,0.00,CLR,,0.01,WeatherDisplay:10.37,2013-07-30 01:23:00,
2013-07-29 21:28:00,64.6,59.0,30.10,WNW,288,1.3,2.3,82,0.00,CLR,,0.01,WeatherDisplay:10.37,2013-07-30 01:28:00,
2013-07-29 21:34:00,64.2,58.6,30.11,WNW,292,1.4,2.3,82,0.00,CLR,,0.01,WeatherDisplay:10.37,2013-07-30 01:34:00,
2013-07-29 21:39:00,63.9,58.6,30.11,NW,306,1.7,2.3,83,0.00,CLR,,0.01,WeatherDisplay:10.37,2013-07-30 01:39:00,
2013-07-29 21:45:00,63.7,58.1,30.11,WNW,301,1.0,3.5,82,0.00,CLR,,0.01,WeatherDisplay:10.37,2013-07-30 01:45:00,
2013-07-29 21:50:00,63.7,58.1,30.11,WNW,292,2.1,3.5,82,0.00,CLR,,0.01,WeatherDisplay:10.37,2013-07-30 01:50:00,
2013-07-29 21:55:00,63.4,58.1,30.11,WNW,288,2.8,4.0,83,0.00,CLR,,0.01,WeatherDisplay:10.37,2013-07-30 01:55:00,
2013-07-29 22:00:00,62.8,58.2,30.11,WNW,303,2.9,3.5,85,0.00,CLR,,0.01,WeatherDisplay:10.37,2013-07-30 02:00:00,
2013-07-29 22:05:00,62.1,57.9,30.12,WNW,302,1.4,3.5,86,0.00,CLR,,0.01,WeatherDisplay:10.37,2013-07-30 02:05:00,
2013-07-29 22:10:00,61.9,58.0,30.12,WNW,302,1.1,1.2,87,0.00,CLR,,0.01,WeatherDisplay:10.37,2013-07-30 02:10:00,
2013-07-29 22:15:00,61.8,57.9,30.12,WNW,302,1.5,2.3,87,0.00,CLR,,0.01,WeatherDisplay:10.37,2013-07-30 02:15:00,
2013-07-29 22:21:00,61.5,57.6,30.12,WNW,300,1.2,2.3,87,0.00,CLR,,0.01,WeatherDisplay:10.37,2013-07-30 02:21:00,
2013-07-29 22:26:00,61.1,57.5,30.12,WNW,303,0.5,1.2,88,0.00,CLR,,0.01,WeatherDisplay:10.37,2013-07-30 02:26:00,
2013-07-29 22:31:00,61.1,57.5,30.13,WNW,302,1.5,3.5,88,0.00,CLR,,0.01,WeatherDisplay:10.37,2013-07-30 02:31:00,
2013-07-29 22:36:00,61.0,57.1,30.13,NW,305,0.4,2.0,87,0.00,CLR,,0.01,WeatherDisplay:10.37,2013-07-30 02:36:00,
2013-07-29 22:41:00,60.9,57.3,30.13,NNW,344,1.2,2.3,88,0.00,CLR,,0.01,WeatherDisplay:10.37,2013-07-30 02:41:00,
2013-07-29 22:46:00,60.7,57.4,30.13,NNW,344,0.1,1.2,89,0.00,CLR,,0.01,WeatherDisplay:10.37,2013-07-30 02:46:00,
2013-07-29 22:51:00,60.9,57.3,30.13,NNW,339,0.8,2.3,88,0.00,CLR,,0.01,WeatherDisplay:10.37,2013-07-30 02:51:00,
2013-07-29 22:57:00,61.6,57.0,30.13,NNW,327,0.6,2.3,85,0.00,CLR,,0.01,WeatherDisplay:10.37,2013-07-30 02:57:00,
2013-07-29 23:02:00,61.7,57.5,30.14,NW,309,2.4,3.5,86,0.00,CLR,,0.01,WeatherDisplay:10.37,2013-07-30 03:02:00,
2013-07-29 23:07:00,61.3,57.1,30.13,WNW,299,1.7,3.0,86,0.00,CLR,,0.01,WeatherDisplay:10.37,2013-07-30 03:07:00,
2013-07-29 23:12:00,61.3,57.4,30.14,NW,312,1.2,3.5,87,0.00,CLR,,0.01,WeatherDisplay:10.37,2013-07-30 03:12:00,
2013-07-29 23:17:00,61.4,57.5,30.14,NW,306,1.5,2.3,87,0.00,CLR,,0.01,WeatherDisplay:10.37,2013-07-30 03:17:00,
2013-07-29 23:24:00,61.8,57.2,30.14,WSW,255,0.7,2.3,85,0.00,CLR,,0.01,WeatherDisplay:10.37,2013-07-30 03:24:00,
2013-07-29 23:29:00,62.0,57.1,30.14,WNW,296,1.1,2.3,84,0.00,CLR,,0.01,WeatherDisplay:10.37,2013-07-30 03:29:00,
2013-07-29 23:34:00,61.8,56.9,30.14,WSW,254,2.2,3.5,84,0.00,CLR,,0.01,WeatherDisplay:10.37,2013-07-30 03:34:00,
2013-07-29 23:39:00,62.0,56.8,30.14,SW,219,1.8,3.5,83,0.00,CLR,,0.01,WeatherDisplay:10.37,2013-07-30 03:39:00,
2013-07-29 23:44:00,62.2,56.3,30.14,WSW,243,2.3,3.5,81,0.00,CLR,,0.01,WeatherDisplay:10.37,2013-07-30 03:44:00,
2013-07-29 23:49:00,62.4,56.5,30.14,WSW,246,1.5,3.5,81,0.00,CLR,,0.01,WeatherDisplay:10.37,2013-07-30 03:49:00,
2013-07-29 23:54:00,62.4,56.1,30.14,WNW,295,1.7,2.3,80,0.00,CLR,,0.01,WeatherDisplay:10.37,2013-07-30 03:54:00,
2013-07-29 23:59:00,62.2,56.6,30.14,NW,313,2.0,3.5,82,0.00,CLR,,0.01,WeatherDisplay:10.37,2013-07-30 03:59:00,